Hamnavoe — VSTY7 — position and weather

sailwx.info

Track history (hours):
 
Tides and Currents Weather Stations Pressure Air Temp Water Temp Dewpoint Dewpoint Depression Visibility Wind Speed Wind Dir Waves Ship Positions

Hamnavoe

Operator: NorthLink Orkey & Shetland Ferries Ltd

Last reported at 2016-Sep-25 15:33 UTC. Time now 2016-Sep-25 15:44 UTC.
Position N 58°58' W 003°18'.

Length 112 m; draft 4.2 m.

Type: Passenger vessel. MMSI: 235449000.

Date/timePositionNaut miles runAvg speedWind from/ knotsBaromVisibWave heightAir tempDewpointWater temp
2016-Sep-25 15:33N 58°58' W 003°18'0 0.0
2016-Sep-25 14:32N 58°58' W 003°18'0 0.0
2016-Sep-25 12:32N 58°58' W 003°18'1211.8
2016-Sep-25 11:34N 58°48' W 003°30'1110.7
2016-Sep-25 10:29N 58°37' W 003°32'0 0.0
2016-Sep-25 09:33N 58°37' W 003°32'2211.2
2016-Sep-25 07:32N 58°58' W 003°18'0 0.0
2016-Sep-25 04:32N 58°58' W 003°18'0 0.0
2016-Sep-25 00:32N 58°58' W 003°18'0 0.0
2016-Sep-24 22:32N 58°58' W 003°18'0 0.0
2016-Sep-24 21:32N 58°58' W 003°18'0 0.0
2016-Sep-24 19:33N 58°58' W 003°18'1111.0
2016-Sep-24 18:33N 58°48' W 003°28'1211.6
2016-Sep-24 17:32N 58°37' W 003°32'1110.7
2016-Sep-24 16:33N 58°47' W 003°29'12 6.1
2016-Sep-24 14:33N 58°58' W 003°18'16 7.9
2016-Sep-24 12:33N 58°44' W 003°30'8 4.2
2016-Sep-24 10:33N 58°52' W 003°28'8 7.6
2016-Sep-24 09:30N 58°58' W 003°18'0 0.0
2016-Sep-24 03:33N 58°58' W 003°18'0 0.0
2016-Sep-24 02:33N 58°58' W 003°18'0 0.0
2016-Sep-24 01:33N 58°58' W 003°18'0 0.0
2016-Sep-24 00:33N 58°58' W 003°18'0 0.0
2016-Sep-23 19:34N 58°58' W 003°18'2211.0
2016-Sep-23 17:31N 58°37' W 003°32'1010.4
2016-Sep-23 16:33N 58°47' W 003°29'1312.7
2016-Sep-23 15:33N 58°58' W 003°18'0 0.0
2016-Sep-23 13:31N 58°58' W 003°18'0 0.0
2016-Sep-23 09:31N 58°58' W 003°18'16 5.2
2016-Sep-23 06:34N 58°44' W 003°30'16 7.6
2016-Sep-23 04:31N 58°58' W 003°18'0 0.0
2016-Sep-23 03:31N 58°58' W 003°18'0 0.0
2016-Sep-23 02:31N 58°58' W 003°18'0 0.0
2016-Sep-23 01:32N 58°58' W 003°18'0 0.0
2016-Sep-23 00:34N 58°58' W 003°18'0 0.0
2016-Sep-22 23:33N 58°58' W 003°18'0 0.0
2016-Sep-22 20:33N 58°58' W 003°18'0 0.0
2016-Sep-22 12:33N 58°58' W 003°18'0 0.0
2016-Sep-22 04:33N 58°58' W 003°18'0 0.0
2016-Sep-22 03:33N 58°58' W 003°18'0 0.0
2016-Sep-22 00:33N 58°58' W 003°18'0 0.0
2016-Sep-21 23:33N 58°58' W 003°18'0 0.0
2016-Sep-21 22:33N 58°58' W 003°18'0 0.0
2016-Sep-21 19:33N 58°58' W 003°18'11 3.7
2016-Sep-21 16:33N 58°48' W 003°29'11 1.6
2016-Sep-21 09:33N 58°58' W 003°18'9 8.9
2016-Sep-21 08:33N 58°51' W 003°28'9 2.9
2016-Sep-21 05:33N 58°58' W 003°18'0 0.1
2016-Sep-21 03:33N 58°58' W 003°18'0 0.0
2016-Sep-21 02:33N 58°58' W 003°18'22 2.5
2016-Sep-20 17:34N 58°37' W 003°32'22 7.4
2016-Sep-20 14:31N 58°58' W 003°18'0 0.0
2016-Sep-20 13:31N 58°58' W 003°18'0 0.0
2016-Sep-20 10:31N 58°58' W 003°18'8 4.0
2016-Sep-20 08:33N 58°52' W 003°28'1515.5
2016-Sep-20 07:34N 58°37' W 003°32'7 7.2
2016-Sep-20 06:33N 58°44' W 003°30'15 3.8
2016-Sep-20 02:32N 58°58' W 003°18'0 0.0
2016-Sep-19 23:32N 58°58' W 003°18'0 0.0
2016-Sep-19 19:33N 58°58' W 003°18'1211.8
2016-Sep-19 18:33N 58°48' W 003°29'0 0.0
2016-Sep-19 16:33N 58°48' W 003°29'12 5.9
2016-Sep-19 14:33N 58°58' W 003°18'1 1.0
2016-Sep-19 13:33N 58°57' W 003°18'1615.7
2016-Sep-19 12:33N 58°42' W 003°30'6 5.8
2016-Sep-19 11:32N 58°37' W 003°32'2211.4
2016-Sep-19 09:33N 58°58' W 003°18'2211.2
2016-Sep-19 07:33N 58°37' W 003°32'8 8.2
2016-Sep-19 06:33N 58°45' W 003°30'14 4.5
2016-Sep-19 03:19N 58°58' W 003°18'0 0.0
2016-Sep-19 02:31N 58°58' W 003°18'0 0.0
2016-Sep-19 00:31N 58°58' W 003°18'0 0.0
2016-Sep-18 19:32N 58°58' W 003°18'0 0.0
2016-Sep-18 15:28N 58°58' W 003°18'0 0.0
2016-Sep-18 14:28N 58°58' W 003°18'22 5.7
2016-Sep-18 10:31N 58°37' W 003°32'0 0.0
2016-Sep-18 09:34N 58°37' W 003°32'22 3.2
2016-Sep-18 02:31N 58°58' W 003°18'0 0.0
2016-Sep-18 01:34N 58°58' W 003°18'0 0.0
2016-Sep-18 00:31N 58°58' W 003°18'0 0.0
2016-Sep-17 22:34N 58°58' W 003°18'0 0.0
2016-Sep-17 21:34N 58°58' W 003°18'0 0.0
2016-Sep-17 20:34N 58°58' W 003°18'1 0.7
2016-Sep-17 19:16N 58°57' W 003°17'0 0.0
2016-Sep-17 13:33N 58°57' W 003°17'1615.8
2016-Sep-17 12:34N 58°43' W 003°30'9 4.7
2016-Sep-17 10:33N 58°52' W 003°28'8 7.7
2016-Sep-17 09:33N 58°58' W 003°18'8 8.3
2016-Sep-17 08:33N 58°52' W 003°28'1515.0
2016-Sep-17 07:33N 58°37' W 003°32'2211.1
2016-Sep-17 05:33N 58°58' W 003°18'0 0.2
2016-Sep-17 04:29N 58°58' W 003°18'0 0.0
2016-Sep-17 00:32N 58°58' W 003°18'22 3.2
2016-Sep-16 17:33N 58°37' W 003°32'2211.2
2016-Sep-16 15:33N 58°58' W 003°18'17 5.6
2016-Sep-16 12:33N 58°42' W 003°30'17 5.6
2016-Sep-16 09:33N 58°58' W 003°18'2211.2
2016-Sep-16 07:33N 58°37' W 003°32'22 5.6
2016-Sep-16 03:33N 58°58' W 003°18'0 0.0
2016-Sep-16 02:33N 58°58' W 003°18'0 0.0
2016-Sep-16 00:30N 58°58' W 003°18'0 0.0
2016-Sep-15 22:33N 58°58' W 003°18'0 0.0
2016-Sep-15 21:33N 58°58' W 003°18'0 0.0
2016-Sep-15 20:33N 58°58' W 003°18'12 5.9
2016-Sep-15 18:33N 58°48' W 003°29'  
Track history (hours):
 
Tides and Currents Weather Stations Pressure Air Temp Water Temp Dewpoint Dewpoint Depression Visibility Wind Speed Wind Dir Waves Ship Positions

Hamnavoe

Operator: NorthLink Orkey & Shetland Ferries Ltd

Last reported at 2016-Sep-25 15:33 UTC. Time now 2016-Sep-25 15:44 UTC.
Position N 58°58' W 003°18'.

Length 112 m; draft 4.2 m.

Type: Passenger vessel. MMSI: 235449000.

Date/timePositionNaut miles runAvg speedWind from/ knotsBaromVisibWave heightAir tempDewpointWater temp
2016-Sep-25 15:33N 58°58' W 003°18'0 0.0
2016-Sep-25 14:32N 58°58' W 003°18'0 0.0
2016-Sep-25 12:32N 58°58' W 003°18'1211.8
2016-Sep-25 11:34N 58°48' W 003°30'1110.7
2016-Sep-25 10:29N 58°37' W 003°32'0 0.0
2016-Sep-25 09:33N 58°37' W 003°32'2211.2
2016-Sep-25 07:32N 58°58' W 003°18'0 0.0
2016-Sep-25 04:32N 58°58' W 003°18'0 0.0
2016-Sep-25 00:32N 58°58' W 003°18'0 0.0
2016-Sep-24 22:32N 58°58' W 003°18'0 0.0
2016-Sep-24 21:32N 58°58' W 003°18'0 0.0
2016-Sep-24 19:33N 58°58' W 003°18'1111.0
2016-Sep-24 18:33N 58°48' W 003°28'1211.6
2016-Sep-24 17:32N 58°37' W 003°32'1110.7
2016-Sep-24 16:33N 58°47' W 003°29'12 6.1
2016-Sep-24 14:33N 58°58' W 003°18'16 7.9
2016-Sep-24 12:33N 58°44' W 003°30'8 4.2
2016-Sep-24 10:33N 58°52' W 003°28'8 7.6
2016-Sep-24 09:30N 58°58' W 003°18'0 0.0
2016-Sep-24 03:33N 58°58' W 003°18'0 0.0
2016-Sep-24 02:33N 58°58' W 003°18'0 0.0
2016-Sep-24 01:33N 58°58' W 003°18'0 0.0
2016-Sep-24 00:33N 58°58' W 003°18'0 0.0
2016-Sep-23 19:34N 58°58' W 003°18'2211.0
2016-Sep-23 17:31N 58°37' W 003°32'1010.4
2016-Sep-23 16:33N 58°47' W 003°29'1312.7
2016-Sep-23 15:33N 58°58' W 003°18'0 0.0
2016-Sep-23 13:31N 58°58' W 003°18'0 0.0
2016-Sep-23 09:31N 58°58' W 003°18'16 5.2
2016-Sep-23 06:34N 58°44' W 003°30'16 7.6
2016-Sep-23 04:31N 58°58' W 003°18'0 0.0
2016-Sep-23 03:31N 58°58' W 003°18'0 0.0
2016-Sep-23 02:31N 58°58' W 003°18'0 0.0
2016-Sep-23 01:32N 58°58' W 003°18'0 0.0
2016-Sep-23 00:34N 58°58' W 003°18'0 0.0
2016-Sep-22 23:33N 58°58' W 003°18'0 0.0
2016-Sep-22 20:33N 58°58' W 003°18'0 0.0
2016-Sep-22 12:33N 58°58' W 003°18'0 0.0
2016-Sep-22 04:33N 58°58' W 003°18'0 0.0
2016-Sep-22 03:33N 58°58' W 003°18'0 0.0
2016-Sep-22 00:33N 58°58' W 003°18'0 0.0
2016-Sep-21 23:33N 58°58' W 003°18'0 0.0
2016-Sep-21 22:33N 58°58' W 003°18'0 0.0
2016-Sep-21 19:33N 58°58' W 003°18'11 3.7
2016-Sep-21 16:33N 58°48' W 003°29'11 1.6
2016-Sep-21 09:33N 58°58' W 003°18'9 8.9
2016-Sep-21 08:33N 58°51' W 003°28'9 2.9
2016-Sep-21 05:33N 58°58' W 003°18'0 0.1
2016-Sep-21 03:33N 58°58' W 003°18'0 0.0
2016-Sep-21 02:33N 58°58' W 003°18'22 2.5
2016-Sep-20 17:34N 58°37' W 003°32'22 7.4
2016-Sep-20 14:31N 58°58' W 003°18'0 0.0
2016-Sep-20 13:31N 58°58' W 003°18'0 0.0
2016-Sep-20 10:31N 58°58' W 003°18'8 4.0
2016-Sep-20 08:33N 58°52' W 003°28'1515.5
2016-Sep-20 07:34N 58°37' W 003°32'7 7.2
2016-Sep-20 06:33N 58°44' W 003°30'15 3.8
2016-Sep-20 02:32N 58°58' W 003°18'0 0.0
2016-Sep-19 23:32N 58°58' W 003°18'0 0.0
2016-Sep-19 19:33N 58°58' W 003°18'1211.8
2016-Sep-19 18:33N 58°48' W 003°29'0 0.0
2016-Sep-19 16:33N 58°48' W 003°29'12 5.9
2016-Sep-19 14:33N 58°58' W 003°18'1 1.0
2016-Sep-19 13:33N 58°57' W 003°18'1615.7
2016-Sep-19 12:33N 58°42' W 003°30'6 5.8
2016-Sep-19 11:32N 58°37' W 003°32'2211.4
2016-Sep-19 09:33N 58°58' W 003°18'2211.2
2016-Sep-19 07:33N 58°37' W 003°32'8 8.2
2016-Sep-19 06:33N 58°45' W 003°30'14 4.5
2016-Sep-19 03:19N 58°58' W 003°18'0 0.0
2016-Sep-19 02:31N 58°58' W 003°18'0 0.0
2016-Sep-19 00:31N 58°58' W 003°18'0 0.0
2016-Sep-18 19:32N 58°58' W 003°18'0 0.0
2016-Sep-18 15:28N 58°58' W 003°18'0 0.0
2016-Sep-18 14:28N 58°58' W 003°18'22 5.7
2016-Sep-18 10:31N 58°37' W 003°32'0 0.0
2016-Sep-18 09:34N 58°37' W 003°32'22 3.2
2016-Sep-18 02:31N 58°58' W 003°18'0 0.0
2016-Sep-18 01:34N 58°58' W 003°18'0 0.0
2016-Sep-18 00:31N 58°58' W 003°18'0 0.0
2016-Sep-17 22:34N 58°58' W 003°18'0 0.0
2016-Sep-17 21:34N 58°58' W 003°18'0 0.0
2016-Sep-17 20:34N 58°58' W 003°18'1 0.7
2016-Sep-17 19:16N 58°57' W 003°17'0 0.0
2016-Sep-17 13:33N 58°57' W 003°17'1615.8
2016-Sep-17 12:34N 58°43' W 003°30'9 4.7
2016-Sep-17 10:33N 58°52' W 003°28'8 7.7
2016-Sep-17 09:33N 58°58' W 003°18'8 8.3
2016-Sep-17 08:33N 58°52' W 003°28'1515.0
2016-Sep-17 07:33N 58°37' W 003°32'2211.1
2016-Sep-17 05:33N 58°58' W 003°18'0 0.2
2016-Sep-17 04:29N 58°58' W 003°18'0 0.0
2016-Sep-17 00:32N 58°58' W 003°18'22 3.2
2016-Sep-16 17:33N 58°37' W 003°32'2211.2
2016-Sep-16 15:33N 58°58' W 003°18'17 5.6
2016-Sep-16 12:33N 58°42' W 003°30'17 5.6
2016-Sep-16 09:33N 58°58' W 003°18'2211.2
2016-Sep-16 07:33N 58°37' W 003°32'22 5.6
2016-Sep-16 03:33N 58°58' W 003°18'0 0.0
2016-Sep-16 02:33N 58°58' W 003°18'0 0.0
2016-Sep-16 00:30N 58°58' W 003°18'0 0.0
2016-Sep-15 22:33N 58°58' W 003°18'0 0.0
2016-Sep-15 21:33N 58°58' W 003°18'0 0.0
2016-Sep-15 20:33N 58°58' W 003°18'12 5.9
2016-Sep-15 18:33N 58°48' W 003°29'  

Dump ship's entire track history